sensor_id;sensor_type;location;lat;lon;timestamp;P1;durP1;ratioP1;P2;durP2;ratioP2
14526;SDS011;7350;51.208;4.238;2022-07-21T00:01:05;11.43;;;10.27;;
14526;SDS011;7350;51.208;4.238;2022-07-21T00:03:32;11.13;;;9.43;;
14526;SDS011;7350;51.208;4.238;2022-07-21T00:06:00;10.20;;;9.20;;
14526;SDS011;7350;51.208;4.238;2022-07-21T00:08:28;11.18;;;10.07;;
14526;SDS011;7350;51.208;4.238;2022-07-21T00:10:55;10.32;;;9.32;;
14526;SDS011;7350;51.208;4.238;2022-07-21T00:13:22;10.73;;;9.63;;
14526;SDS011;7350;51.208;4.238;2022-07-21T00:15:50;10.32;;;9.32;;
14526;SDS011;7350;51.208;4.238;2022-07-21T00:18:17;10.63;;;9.52;;
14526;SDS011;7350;51.208;4.238;2022-07-21T00:20:45;10.48;;;9.30;;
14526;SDS011;7350;51.208;4.238;2022-07-21T00:23:12;9.77;;;8.85;;
14526;SDS011;7350;51.208;4.238;2022-07-21T00:25:39;10.23;;;8.90;;
14526;SDS011;7350;51.208;4.238;2022-07-21T00:28:07;10.27;;;9.20;;
14526;SDS011;7350;51.208;4.238;2022-07-21T00:30:34;10.02;;;9.02;;
14526;SDS011;7350;51.208;4.238;2022-07-21T00:33:02;9.80;;;8.82;;
14526;SDS011;7350;51.208;4.238;2022-07-21T00:35:29;10.88;;;8.70;;
14526;SDS011;7350;51.208;4.238;2022-07-21T00:37:56;9.52;;;8.48;;
14526;SDS011;7350;51.208;4.238;2022-07-21T00:40:23;10.10;;;8.65;;
14526;SDS011;7350;51.208;4.238;2022-07-21T00:42:52;9.00;;;8.13;;
14526;SDS011;7350;51.208;4.238;2022-07-21T00:45:19;9.85;;;8.45;;
14526;SDS011;7350;51.208;4.238;2022-07-21T00:47:46;10.18;;;8.82;;
14526;SDS011;7350;51.208;4.238;2022-07-21T00:50:16;10.13;;;7.97;;
14526;SDS011;7350;51.208;4.238;2022-07-21T00:52:44;8.50;;;7.65;;
14526;SDS011;7350;51.208;4.238;2022-07-21T00:55:13;10.40;;;8.00;;
14526;SDS011;7350;51.208;4.238;2022-07-21T00:57:42;9.20;;;8.30;;
14526;SDS011;7350;51.208;4.238;2022-07-21T01:00:11;8.65;;;7.78;;
14526;SDS011;7350;51.208;4.238;2022-07-21T01:02:40;9.90;;;8.18;;
14526;SDS011;7350;51.208;4.238;2022-07-21T01:05:09;11.30;;;8.25;;
14526;SDS011;7350;51.208;4.238;2022-07-21T01:07:41;9.18;;;8.27;;
14526;SDS011;7350;51.208;4.238;2022-07-21T01:10:10;8.98;;;8.07;;
14526;SDS011;7350;51.208;4.238;2022-07-21T01:12:37;8.32;;;7.25;;
14526;SDS011;7350;51.208;4.238;2022-07-21T01:15:05;9.50;;;7.75;;
14526;SDS011;7350;51.208;4.238;2022-07-21T01:17:34;10.50;;;8.10;;
14526;SDS011;7350;51.208;4.238;2022-07-21T01:20:02;9.60;;;8.25;;
14526;SDS011;7350;51.208;4.238;2022-07-21T01:22:33;9.50;;;8.50;;
14526;SDS011;7350;51.208;4.238;2022-07-21T01:25:01;9.30;;;8.25;;
14526;SDS011;7350;51.208;4.238;2022-07-21T01:27:29;8.95;;;7.43;;
14526;SDS011;7350;51.208;4.238;2022-07-21T01:29:56;10.77;;;8.05;;
14526;SDS011;7350;51.208;4.238;2022-07-21T01:32:25;8.57;;;7.78;;
14526;SDS011;7350;51.208;4.238;2022-07-21T01:34:52;8.93;;;8.07;;
14526;SDS011;7350;51.208;4.238;2022-07-21T01:37:20;9.80;;;8.52;;
14526;SDS011;7350;51.208;4.238;2022-07-21T01:39:49;9.90;;;8.20;;
14526;SDS011;7350;51.208;4.238;2022-07-21T01:42:34;9.00;;;8.10;;
14526;SDS011;7350;51.208;4.238;2022-07-21T01:45:02;10.55;;;7.88;;
14526;SDS011;7350;51.208;4.238;2022-07-21T01:47:30;9.77;;;8.75;;
14526;SDS011;7350;51.208;4.238;2022-07-21T01:49:57;9.05;;;7.72;;
14526;SDS011;7350;51.208;4.238;2022-07-21T01:52:24;9.50;;;7.80;;
14526;SDS011;7350;51.208;4.238;2022-07-21T01:54:52;10.00;;;8.27;;
14526;SDS011;7350;51.208;4.238;2022-07-21T01:57:22;10.35;;;8.02;;
14526;SDS011;7350;51.208;4.238;2022-07-21T01:59:49;9.15;;;7.47;;
14526;SDS011;7350;51.208;4.238;2022-07-21T02:02:16;9.65;;;8.55;;
14526;SDS011;7350;51.208;4.238;2022-07-21T02:04:46;12.85;;;8.73;;
14526;SDS011;7350;51.208;4.238;2022-07-21T02:07:13;10.25;;;8.57;;
14526;SDS011;7350;51.208;4.238;2022-07-21T02:09:40;10.38;;;8.25;;
14526;SDS011;7350;51.208;4.238;2022-07-21T02:12:09;10.00;;;8.00;;
14526;SDS011;7350;51.208;4.238;2022-07-21T02:14:36;9.98;;;8.98;;
14526;SDS011;7350;51.208;4.238;2022-07-21T02:17:03;9.48;;;7.75;;
14526;SDS011;7350;51.208;4.238;2022-07-21T02:19:31;10.25;;;7.90;;
14526;SDS011;7350;51.208;4.238;2022-07-21T02:21:58;8.80;;;7.63;;
14526;SDS011;7350;51.208;4.238;2022-07-21T02:24:25;9.20;;;8.20;;
14526;SDS011;7350;51.208;4.238;2022-07-21T02:26:52;9.95;;;7.65;;
14526;SDS011;7350;51.208;4.238;2022-07-21T02:29:23;11.57;;;7.28;;
14526;SDS011;7350;51.208;4.238;2022-07-21T02:31:50;8.85;;;7.88;;
14526;SDS011;7350;51.208;4.238;2022-07-21T02:34:18;8.70;;;7.35;;
14526;SDS011;7350;51.208;4.238;2022-07-21T02:36:45;12.73;;;7.85;;
14526;SDS011;7350;51.208;4.238;2022-07-21T02:39:12;11.18;;;7.22;;
14526;SDS011;7350;51.208;4.238;2022-07-21T02:41:41;8.80;;;7.43;;
14526;SDS011;7350;51.208;4.238;2022-07-21T02:44:08;9.88;;;7.57;;
14526;SDS011;7350;51.208;4.238;2022-07-21T02:46:36;9.25;;;6.90;;
14526;SDS011;7350;51.208;4.238;2022-07-21T02:49:03;11.98;;;7.53;;
14526;SDS011;7350;51.208;4.238;2022-07-21T02:51:30;11.65;;;7.03;;
14526;SDS011;7350;51.208;4.238;2022-07-21T02:53:57;11.13;;;7.43;;
14526;SDS011;7350;51.208;4.238;2022-07-21T02:56:24;10.50;;;7.85;;
14526;SDS011;7350;51.208;4.238;2022-07-21T02:58:51;10.57;;;7.00;;
14526;SDS011;7350;51.208;4.238;2022-07-21T03:01:18;9.65;;;6.82;;
14526;SDS011;7350;51.208;4.238;2022-07-21T03:03:46;10.45;;;7.45;;
14526;SDS011;7350;51.208;4.238;2022-07-21T03:06:13;12.65;;;7.40;;
14526;SDS011;7350;51.208;4.238;2022-07-21T03:08:40;11.63;;;7.75;;
14526;SDS011;7350;51.208;4.238;2022-07-21T03:11:07;8.90;;;7.30;;
14526;SDS011;7350;51.208;4.238;2022-07-21T03:13:37;10.30;;;7.53;;
14526;SDS011;7350;51.208;4.238;2022-07-21T03:16:04;10.20;;;7.28;;
14526;SDS011;7350;51.208;4.238;2022-07-21T03:18:31;12.50;;;8.02;;
14526;SDS011;7350;51.208;4.238;2022-07-21T03:20:59;11.98;;;7.95;;
14526;SDS011;7350;51.208;4.238;2022-07-21T03:23:26;10.38;;;7.70;;
14526;SDS011;7350;51.208;4.238;2022-07-21T03:25:53;9.88;;;8.13;;
14526;SDS011;7350;51.208;4.238;2022-07-21T03:28:20;9.18;;;8.23;;
14526;SDS011;7350;51.208;4.238;2022-07-21T03:30:47;14.43;;;9.55;;
14526;SDS011;7350;51.208;4.238;2022-07-21T03:33:14;10.73;;;7.65;;
14526;SDS011;7350;51.208;4.238;2022-07-21T03:35:41;13.68;;;8.75;;
14526;SDS011;7350;51.208;4.238;2022-07-21T03:38:10;13.00;;;8.63;;
14526;SDS011;7350;51.208;4.238;2022-07-21T03:40:37;11.70;;;8.75;;
14526;SDS011;7350;51.208;4.238;2022-07-21T03:43:04;13.98;;;8.75;;
14526;SDS011;7350;51.208;4.238;2022-07-21T03:45:32;12.45;;;8.68;;
14526;SDS011;7350;51.208;4.238;2022-07-21T03:48:01;11.27;;;8.40;;
14526;SDS011;7350;51.208;4.238;2022-07-21T03:50:29;12.05;;;8.70;;
14526;SDS011;7350;51.208;4.238;2022-07-21T03:52:56;12.30;;;8.88;;
14526;SDS011;7350;51.208;4.238;2022-07-21T03:55:25;18.63;;;8.88;;
14526;SDS011;7350;51.208;4.238;2022-07-21T03:57:53;11.70;;;8.80;;
14526;SDS011;7350;51.208;4.238;2022-07-21T04:00:22;14.07;;;9.13;;
14526;SDS011;7350;51.208;4.238;2022-07-21T04:02:50;13.05;;;9.20;;
14526;SDS011;7350;51.208;4.238;2022-07-21T04:05:18;13.07;;;8.85;;
14526;SDS011;7350;51.208;4.238;2022-07-21T04:07:47;13.80;;;8.85;;
14526;SDS011;7350;51.208;4.238;2022-07-21T04:10:16;11.02;;;9.38;;
14526;SDS011;7350;51.208;4.238;2022-07-21T04:12:45;13.50;;;9.77;;
14526;SDS011;7350;51.208;4.238;2022-07-21T04:15:13;11.95;;;9.77;;
14526;SDS011;7350;51.208;4.238;2022-07-21T04:17:40;13.25;;;9.82;;
14526;SDS011;7350;51.208;4.238;2022-07-21T04:20:08;14.63;;;9.95;;
14526;SDS011;7350;51.208;4.238;2022-07-21T04:22:37;15.70;;;9.85;;
14526;SDS011;7350;51.208;4.238;2022-07-21T04:25:04;13.35;;;8.93;;
14526;SDS011;7350;51.208;4.238;2022-07-21T04:27:33;14.95;;;10.20;;
14526;SDS011;7350;51.208;4.238;2022-07-21T04:30:02;14.32;;;11.55;;
14526;SDS011;7350;51.208;4.238;2022-07-21T04:32:31;15.63;;;11.40;;
14526;SDS011;7350;51.208;4.238;2022-07-21T04:34:58;15.20;;;12.10;;
14526;SDS011;7350;51.208;4.238;2022-07-21T04:37:25;13.75;;;11.75;;
14526;SDS011;7350;51.208;4.238;2022-07-21T04:39:52;16.20;;;13.02;;
14526;SDS011;7350;51.208;4.238;2022-07-21T04:42:19;18.10;;;12.40;;
14526;SDS011;7350;51.208;4.238;2022-07-21T04:44:46;18.25;;;13.25;;
14526;SDS011;7350;51.208;4.238;2022-07-21T04:47:14;19.08;;;13.13;;
14526;SDS011;7350;51.208;4.238;2022-07-21T04:49:41;18.98;;;15.32;;
14526;SDS011;7350;51.208;4.238;2022-07-21T04:52:08;33.72;;;17.77;;
14526;SDS011;7350;51.208;4.238;2022-07-21T04:54:35;21.65;;;15.93;;
14526;SDS011;7350;51.208;4.238;2022-07-21T04:57:02;20.30;;;15.27;;
14526;SDS011;7350;51.208;4.238;2022-07-21T04:59:31;23.92;;;15.88;;
14526;SDS011;7350;51.208;4.238;2022-07-21T05:01:58;21.88;;;16.02;;
14526;SDS011;7350;51.208;4.238;2022-07-21T05:04:27;23.17;;;17.15;;
14526;SDS011;7350;51.208;4.238;2022-07-21T05:06:54;25.10;;;18.50;;
14526;SDS011;7350;51.208;4.238;2022-07-21T05:09:22;28.30;;;19.60;;
14526;SDS011;7350;51.208;4.238;2022-07-21T05:11:49;26.45;;;19.30;;
14526;SDS011;7350;51.208;4.238;2022-07-21T05:14:16;29.65;;;18.98;;
14526;SDS011;7350;51.208;4.238;2022-07-21T05:16:43;28.23;;;20.58;;
14526;SDS011;7350;51.208;4.238;2022-07-21T05:19:10;26.38;;;21.13;;
14526;SDS011;7350;51.208;4.238;2022-07-21T05:21:39;27.95;;;20.95;;
14526;SDS011;7350;51.208;4.238;2022-07-21T05:24:06;29.10;;;22.75;;
14526;SDS011;7350;51.208;4.238;2022-07-21T05:26:34;29.65;;;23.33;;
14526;SDS011;7350;51.208;4.238;2022-07-21T05:29:01;33.10;;;24.10;;
14526;SDS011;7350;51.208;4.238;2022-07-21T05:31:28;26.33;;;23.00;;
14526;SDS011;7350;51.208;4.238;2022-07-21T05:33:55;28.30;;;23.42;;
14526;SDS011;7350;51.208;4.238;2022-07-21T05:36:22;31.52;;;24.35;;
14526;SDS011;7350;51.208;4.238;2022-07-21T05:38:50;30.15;;;23.30;;
14526;SDS011;7350;51.208;4.238;2022-07-21T05:41:17;30.98;;;23.67;;
14526;SDS011;7350;51.208;4.238;2022-07-21T05:43:44;29.60;;;22.45;;
14526;SDS011;7350;51.208;4.238;2022-07-21T05:46:11;28.33;;;23.35;;
14526;SDS011;7350;51.208;4.238;2022-07-21T05:48:38;26.83;;;24.02;;
14526;SDS011;7350;51.208;4.238;2022-07-21T05:51:05;27.58;;;23.58;;
14526;SDS011;7350;51.208;4.238;2022-07-21T05:53:32;27.40;;;23.50;;
14526;SDS011;7350;51.208;4.238;2022-07-21T05:56:01;27.55;;;23.27;;
14526;SDS011;7350;51.208;4.238;2022-07-21T05:58:28;28.25;;;22.30;;
14526;SDS011;7350;51.208;4.238;2022-07-21T06:00:55;24.17;;;21.08;;
14526;SDS011;7350;51.208;4.238;2022-07-21T06:03:34;23.17;;;20.67;;
14526;SDS011;7350;51.208;4.238;2022-07-21T06:06:01;23.40;;;20.83;;
14526;SDS011;7350;51.208;4.238;2022-07-21T06:08:28;29.85;;;21.48;;
14526;SDS011;7350;51.208;4.238;2022-07-21T06:10:55;24.98;;;20.42;;
14526;SDS011;7350;51.208;4.238;2022-07-21T06:13:24;22.55;;;19.02;;
14526;SDS011;7350;51.208;4.238;2022-07-21T06:15:51;23.83;;;18.50;;
14526;SDS011;7350;51.208;4.238;2022-07-21T06:18:18;20.17;;;18.05;;
14526;SDS011;7350;51.208;4.238;2022-07-21T06:20:45;20.27;;;18.10;;
14526;SDS011;7350;51.208;4.238;2022-07-21T06:23:12;19.73;;;16.85;;
14526;SDS011;7350;51.208;4.238;2022-07-21T06:25:39;18.25;;;16.25;;
14526;SDS011;7350;51.208;4.238;2022-07-21T06:28:06;21.10;;;17.35;;
14526;SDS011;7350;51.208;4.238;2022-07-21T06:30:34;20.83;;;18.60;;
14526;SDS011;7350;51.208;4.238;2022-07-21T06:33:01;23.63;;;21.00;;
14526;SDS011;7350;51.208;4.238;2022-07-21T06:35:29;27.50;;;22.63;;
14526;SDS011;7350;51.208;4.238;2022-07-21T06:37:55;28.58;;;23.80;;
14526;SDS011;7350;51.208;4.238;2022-07-21T06:40:22;31.77;;;26.35;;
14526;SDS011;7350;51.208;4.238;2022-07-21T06:42:49;34.67;;;26.83;;
14526;SDS011;7350;51.208;4.238;2022-07-21T06:45:16;33.45;;;27.42;;
14526;SDS011;7350;51.208;4.238;2022-07-21T06:47:45;37.72;;;29.48;;
14526;SDS011;7350;51.208;4.238;2022-07-21T06:50:12;38.88;;;28.85;;
14526;SDS011;7350;51.208;4.238;2022-07-21T06:52:39;41.83;;;32.90;;
14526;SDS011;7350;51.208;4.238;2022-07-21T06:55:07;39.67;;;31.05;;
14526;SDS011;7350;51.208;4.238;2022-07-21T06:57:35;43.05;;;32.88;;
14526;SDS011;7350;51.208;4.238;2022-07-21T07:00:02;45.92;;;34.63;;
14526;SDS011;7350;51.208;4.238;2022-07-21T07:02:31;44.40;;;34.15;;
14526;SDS011;7350;51.208;4.238;2022-07-21T07:04:59;44.40;;;33.83;;
14526;SDS011;7350;51.208;4.238;2022-07-21T07:07:26;41.33;;;34.08;;
14526;SDS011;7350;51.208;4.238;2022-07-21T07:09:54;39.28;;;33.60;;
14526;SDS011;7350;51.208;4.238;2022-07-21T07:12:21;35.65;;;30.45;;
14526;SDS011;7350;51.208;4.238;2022-07-21T07:14:48;35.35;;;31.38;;
14526;SDS011;7350;51.208;4.238;2022-07-21T07:17:15;34.28;;;30.05;;
14526;SDS011;7350;51.208;4.238;2022-07-21T07:19:43;36.65;;;28.50;;
14526;SDS011;7350;51.208;4.238;2022-07-21T07:22:11;32.05;;;28.58;;
14526;SDS011;7350;51.208;4.238;2022-07-21T07:24:38;35.47;;;28.40;;
14526;SDS011;7350;51.208;4.238;2022-07-21T07:27:05;34.47;;;29.42;;
14526;SDS011;7350;51.208;4.238;2022-07-21T07:29:32;34.70;;;29.65;;
14526;SDS011;7350;51.208;4.238;2022-07-21T07:32:00;36.78;;;29.15;;
14526;SDS011;7350;51.208;4.238;2022-07-21T07:34:27;36.53;;;30.27;;
14526;SDS011;7350;51.208;4.238;2022-07-21T07:36:54;38.45;;;30.13;;
14526;SDS011;7350;51.208;4.238;2022-07-21T07:39:22;35.58;;;29.63;;
14526;SDS011;7350;51.208;4.238;2022-07-21T07:41:49;36.30;;;29.17;;
14526;SDS011;7350;51.208;4.238;2022-07-21T07:44:16;33.13;;;27.38;;
14526;SDS011;7350;51.208;4.238;2022-07-21T07:46:43;33.65;;;26.38;;
14526;SDS011;7350;51.208;4.238;2022-07-21T07:49:10;29.52;;;24.92;;
14526;SDS011;7350;51.208;4.238;2022-07-21T07:51:37;33.78;;;23.48;;
14526;SDS011;7350;51.208;4.238;2022-07-21T07:54:04;29.67;;;22.65;;
14526;SDS011;7350;51.208;4.238;2022-07-21T07:56:32;27.15;;;21.15;;
14526;SDS011;7350;51.208;4.238;2022-07-21T07:58:59;25.65;;;21.27;;
14526;SDS011;7350;51.208;4.238;2022-07-21T08:01:26;24.48;;;21.60;;
14526;SDS011;7350;51.208;4.238;2022-07-21T08:03:53;29.83;;;21.92;;
14526;SDS011;7350;51.208;4.238;2022-07-21T08:06:21;30.70;;;23.38;;
14526;SDS011;7350;51.208;4.238;2022-07-21T08:08:48;33.22;;;24.20;;
14526;SDS011;7350;51.208;4.238;2022-07-21T08:11:15;31.35;;;24.02;;
14526;SDS011;7350;51.208;4.238;2022-07-21T08:13:43;32.85;;;24.45;;
14526;SDS011;7350;51.208;4.238;2022-07-21T08:16:10;35.05;;;24.00;;
14526;SDS011;7350;51.208;4.238;2022-07-21T08:18:40;30.83;;;23.23;;
14526;SDS011;7350;51.208;4.238;2022-07-21T08:21:07;32.47;;;21.67;;
14526;SDS011;7350;51.208;4.238;2022-07-21T08:23:34;25.75;;;19.60;;
14526;SDS011;7350;51.208;4.238;2022-07-21T08:26:01;27.75;;;19.98;;
14526;SDS011;7350;51.208;4.238;2022-07-21T08:28:28;25.02;;;18.75;;
14526;SDS011;7350;51.208;4.238;2022-07-21T08:30:56;22.52;;;18.35;;
14526;SDS011;7350;51.208;4.238;2022-07-21T08:33:23;24.10;;;19.13;;
14526;SDS011;7350;51.208;4.238;2022-07-21T08:35:50;25.63;;;20.70;;
14526;SDS011;7350;51.208;4.238;2022-07-21T08:38:19;24.95;;;19.42;;
14526;SDS011;7350;51.208;4.238;2022-07-21T08:40:46;21.13;;;17.73;;
14526;SDS011;7350;51.208;4.238;2022-07-21T08:43:13;21.33;;;18.25;;
14526;SDS011;7350;51.208;4.238;2022-07-21T08:45:40;22.58;;;18.58;;
14526;SDS011;7350;51.208;4.238;2022-07-21T08:48:09;21.63;;;17.75;;
14526;SDS011;7350;51.208;4.238;2022-07-21T08:50:38;18.27;;;14.90;;
14526;SDS011;7350;51.208;4.238;2022-07-21T08:53:05;17.90;;;14.95;;
14526;SDS011;7350;51.208;4.238;2022-07-21T08:55:33;17.10;;;13.68;;
14526;SDS011;7350;51.208;4.238;2022-07-21T08:58:02;15.65;;;12.85;;
14526;SDS011;7350;51.208;4.238;2022-07-21T09:00:29;17.15;;;13.40;;
14526;SDS011;7350;51.208;4.238;2022-07-21T09:03:14;13.50;;;11.75;;
14526;SDS011;7350;51.208;4.238;2022-07-21T09:05:42;12.30;;;10.85;;
14526;SDS011;7350;51.208;4.238;2022-07-21T09:08:28;12.85;;;10.77;;
14526;SDS011;7350;51.208;4.238;2022-07-21T09:11:06;13.02;;;10.95;;
14526;SDS011;7350;51.208;4.238;2022-07-21T09:13:34;12.07;;;10.73;;
14526;SDS011;7350;51.208;4.238;2022-07-21T09:16:02;11.40;;;10.20;;
14526;SDS011;7350;51.208;4.238;2022-07-21T09:18:30;13.65;;;11.15;;
14526;SDS011;7350;51.208;4.238;2022-07-21T09:20:57;12.98;;;11.38;;
14526;SDS011;7350;51.208;4.238;2022-07-21T09:23:27;13.63;;;12.07;;
14526;SDS011;7350;51.208;4.238;2022-07-21T09:25:54;12.60;;;11.02;;
14526;SDS011;7350;51.208;4.238;2022-07-21T09:28:24;13.85;;;12.07;;
14526;SDS011;7350;51.208;4.238;2022-07-21T09:30:55;14.30;;;11.27;;
14526;SDS011;7350;51.208;4.238;2022-07-21T09:33:27;15.90;;;10.40;;
14526;SDS011;7350;51.208;4.238;2022-07-21T09:35:59;14.15;;;11.23;;
14526;SDS011;7350;51.208;4.238;2022-07-21T09:38:29;14.75;;;11.13;;
14526;SDS011;7350;51.208;4.238;2022-07-21T09:41:04;12.35;;;9.95;;
14526;SDS011;7350;51.208;4.238;2022-07-21T09:43:34;12.80;;;10.50;;
14526;SDS011;7350;51.208;4.238;2022-07-21T09:46:08;13.48;;;11.02;;
14526;SDS011;7350;51.208;4.238;2022-07-21T09:48:41;18.17;;;11.40;;
14526;SDS011;7350;51.208;4.238;2022-07-21T09:51:21;15.93;;;10.88;;
14526;SDS011;7350;51.208;4.238;2022-07-21T09:53:54;14.55;;;11.02;;
14526;SDS011;7350;51.208;4.238;2022-07-21T09:56:23;17.42;;;11.15;;
14526;SDS011;7350;51.208;4.238;2022-07-21T09:58:52;16.48;;;11.48;;
14526;SDS011;7350;51.208;4.238;2022-07-21T10:01:20;11.90;;;10.40;;
14526;SDS011;7350;51.208;4.238;2022-07-21T10:03:48;19.70;;;11.07;;
14526;SDS011;7350;51.208;4.238;2022-07-21T10:06:17;13.52;;;10.50;;
14526;SDS011;7350;51.208;4.238;2022-07-21T10:08:47;13.13;;;10.63;;
14526;SDS011;7350;51.208;4.238;2022-07-21T10:11:15;14.55;;;10.80;;
14526;SDS011;7350;51.208;4.238;2022-07-21T10:13:42;16.05;;;10.13;;
14526;SDS011;7350;51.208;4.238;2022-07-21T10:16:10;13.55;;;11.02;;
14526;SDS011;7350;51.208;4.238;2022-07-21T10:18:39;14.23;;;10.50;;
14526;SDS011;7350;51.208;4.238;2022-07-21T10:21:21;11.95;;;10.20;;
14526;SDS011;7350;51.208;4.238;2022-07-21T10:23:57;13.57;;;10.45;;
14526;SDS011;7350;51.208;4.238;2022-07-21T10:26:24;11.65;;;9.05;;
14526;SDS011;7350;51.208;4.238;2022-07-21T10:28:51;12.52;;;9.35;;
14526;SDS011;7350;51.208;4.238;2022-07-21T10:31:19;11.93;;;9.00;;
14526;SDS011;7350;51.208;4.238;2022-07-21T10:33:57;10.82;;;8.85;;
14526;SDS011;7350;51.208;4.238;2022-07-21T10:36:41;11.70;;;9.18;;
14526;SDS011;7350;51.208;4.238;2022-07-21T10:39:24;11.13;;;8.98;;
14526;SDS011;7350;51.208;4.238;2022-07-21T10:41:56;13.57;;;10.05;;
14526;SDS011;7350;51.208;4.238;2022-07-21T10:44:39;14.73;;;10.52;;
14526;SDS011;7350;51.208;4.238;2022-07-21T10:47:11;14.65;;;10.02;;
14526;SDS011;7350;51.208;4.238;2022-07-21T10:49:41;12.05;;;10.02;;
14526;SDS011;7350;51.208;4.238;2022-07-21T10:55:16;13.05;;;8.45;;
14526;SDS011;7350;51.208;4.238;2022-07-21T11:00:37;10.90;;;8.23;;
14526;SDS011;7350;51.208;4.238;2022-07-21T11:03:13;10.63;;;8.27;;
14526;SDS011;7350;51.208;4.238;2022-07-21T11:08:49;12.25;;;8.18;;
14526;SDS011;7350;51.208;4.238;2022-07-21T11:11:18;12.77;;;7.88;;
14526;SDS011;7350;51.208;4.238;2022-07-21T11:13:57;10.93;;;6.97;;
14526;SDS011;7350;51.208;4.238;2022-07-21T11:19:34;10.13;;;6.20;;
14526;SDS011;7350;51.208;4.238;2022-07-21T11:22:05;9.23;;;6.40;;
14526;SDS011;7350;51.208;4.238;2022-07-21T11:24:36;10.50;;;6.25;;
14526;SDS011;7350;51.208;4.238;2022-07-21T11:27:06;10.50;;;7.03;;
14526;SDS011;7350;51.208;4.238;2022-07-21T11:29:34;5.82;;;5.28;;
14526;SDS011;7350;51.208;4.238;2022-07-21T11:32:03;6.00;;;5.40;;
14526;SDS011;7350;51.208;4.238;2022-07-21T11:34:37;9.05;;;5.18;;
14526;SDS011;7350;51.208;4.238;2022-07-21T11:37:05;7.00;;;5.43;;
14526;SDS011;7350;51.208;4.238;2022-07-21T11:39:32;8.98;;;5.43;;
14526;SDS011;7350;51.208;4.238;2022-07-21T11:42:03;9.48;;;5.60;;
14526;SDS011;7350;51.208;4.238;2022-07-21T11:44:33;7.45;;;5.35;;
14526;SDS011;7350;51.208;4.238;2022-07-21T11:47:00;7.90;;;5.60;;
14526;SDS011;7350;51.208;4.238;2022-07-21T11:49:28;6.65;;;4.80;;
14526;SDS011;7350;51.208;4.238;2022-07-21T11:51:58;7.97;;;5.40;;
14526;SDS011;7350;51.208;4.238;2022-07-21T11:54:27;9.20;;;5.68;;
14526;SDS011;7350;51.208;4.238;2022-07-21T11:56:56;10.02;;;5.18;;
14526;SDS011;7350;51.208;4.238;2022-07-21T11:59:26;8.52;;;5.40;;
14526;SDS011;7350;51.208;4.238;2022-07-21T12:01:56;7.80;;;5.72;;
14526;SDS011;7350;51.208;4.238;2022-07-21T12:04:38;9.60;;;5.82;;
14526;SDS011;7350;51.208;4.238;2022-07-21T12:07:12;8.40;;;5.38;;
14526;SDS011;7350;51.208;4.238;2022-07-21T12:09:45;11.73;;;6.43;;
14526;SDS011;7350;51.208;4.238;2022-07-21T12:12:13;10.65;;;5.95;;
14526;SDS011;7350;51.208;4.238;2022-07-21T12:14:45;10.07;;;5.88;;
14526;SDS011;7350;51.208;4.238;2022-07-21T12:17:15;13.30;;;6.47;;
14526;SDS011;7350;51.208;4.238;2022-07-21T12:19:43;9.57;;;6.65;;
14526;SDS011;7350;51.208;4.238;2022-07-21T12:22:10;13.13;;;6.25;;
14526;SDS011;7350;51.208;4.238;2022-07-21T12:24:49;8.35;;;5.63;;
14526;SDS011;7350;51.208;4.238;2022-07-21T12:27:17;9.73;;;5.30;;
14526;SDS011;7350;51.208;4.238;2022-07-21T12:29:46;10.50;;;6.03;;
14526;SDS011;7350;51.208;4.238;2022-07-21T12:32:14;9.55;;;5.68;;
14526;SDS011;7350;51.208;4.238;2022-07-21T12:35:01;10.77;;;6.28;;
14526;SDS011;7350;51.208;4.238;2022-07-21T12:40:20;12.75;;;6.57;;
14526;SDS011;7350;51.208;4.238;2022-07-21T12:42:48;10.55;;;6.03;;
14526;SDS011;7350;51.208;4.238;2022-07-21T12:45:17;12.35;;;5.68;;
14526;SDS011;7350;51.208;4.238;2022-07-21T12:50:32;15.80;;;6.65;;
14526;SDS011;7350;51.208;4.238;2022-07-21T12:52:59;10.27;;;5.95;;
14526;SDS011;7350;51.208;4.238;2022-07-21T12:55:26;13.90;;;6.47;;
14526;SDS011;7350;51.208;4.238;2022-07-21T12:57:53;13.85;;;7.72;;
14526;SDS011;7350;51.208;4.238;2022-07-21T13:00:21;15.25;;;8.52;;
14526;SDS011;7350;51.208;4.238;2022-07-21T13:02:49;14.85;;;8.32;;
14526;SDS011;7350;51.208;4.238;2022-07-21T13:05:18;16.98;;;9.43;;
14526;SDS011;7350;51.208;4.238;2022-07-21T13:07:45;17.17;;;7.88;;
14526;SDS011;7350;51.208;4.238;2022-07-21T13:10:12;14.20;;;7.70;;
14526;SDS011;7350;51.208;4.238;2022-07-21T13:12:39;15.82;;;8.05;;
14526;SDS011;7350;51.208;4.238;2022-07-21T13:15:07;17.35;;;8.10;;
14526;SDS011;7350;51.208;4.238;2022-07-21T13:17:35;15.80;;;6.60;;
14526;SDS011;7350;51.208;4.238;2022-07-21T13:20:03;16.77;;;7.15;;
14526;SDS011;7350;51.208;4.238;2022-07-21T13:22:30;14.55;;;6.28;;
14526;SDS011;7350;51.208;4.238;2022-07-21T13:24:57;10.50;;;4.78;;
14526;SDS011;7350;51.208;4.238;2022-07-21T13:27:24;10.88;;;4.88;;
14526;SDS011;7350;51.208;4.238;2022-07-21T13:29:51;15.23;;;5.85;;
14526;SDS011;7350;51.208;4.238;2022-07-21T13:32:18;13.55;;;5.18;;
14526;SDS011;7350;51.208;4.238;2022-07-21T13:34:47;8.60;;;4.15;;
14526;SDS011;7350;51.208;4.238;2022-07-21T13:37:14;11.57;;;5.00;;
14526;SDS011;7350;51.208;4.238;2022-07-21T13:39:41;15.60;;;5.57;;
14526;SDS011;7350;51.208;4.238;2022-07-21T13:42:08;11.00;;;5.13;;
14526;SDS011;7350;51.208;4.238;2022-07-21T13:44:35;14.95;;;5.30;;
14526;SDS011;7350;51.208;4.238;2022-07-21T13:47:02;13.95;;;5.28;;
14526;SDS011;7350;51.208;4.238;2022-07-21T13:49:30;8.85;;;4.85;;
14526;SDS011;7350;51.208;4.238;2022-07-21T13:51:59;14.85;;;5.20;;
14526;SDS011;7350;51.208;4.238;2022-07-21T13:54:26;12.77;;;5.05;;
14526;SDS011;7350;51.208;4.238;2022-07-21T13:56:53;12.52;;;4.85;;
14526;SDS011;7350;51.208;4.238;2022-07-21T13:59:21;11.93;;;5.22;;
14526;SDS011;7350;51.208;4.238;2022-07-21T14:01:48;11.73;;;5.35;;
14526;SDS011;7350;51.208;4.238;2022-07-21T14:04:18;12.68;;;4.97;;
14526;SDS011;7350;51.208;4.238;2022-07-21T14:06:45;11.40;;;4.60;;
14526;SDS011;7350;51.208;4.238;2022-07-21T14:09:15;16.35;;;5.78;;
14526;SDS011;7350;51.208;4.238;2022-07-21T14:11:42;14.43;;;7.32;;
14526;SDS011;7350;51.208;4.238;2022-07-21T14:14:10;19.38;;;8.18;;
14526;SDS011;7350;51.208;4.238;2022-07-21T14:16:42;12.07;;;6.63;;
14526;SDS011;7350;51.208;4.238;2022-07-21T14:19:09;13.98;;;6.15;;
14526;SDS011;7350;51.208;4.238;2022-07-21T14:21:36;9.82;;;5.03;;
14526;SDS011;7350;51.208;4.238;2022-07-21T14:24:04;15.02;;;5.25;;
14526;SDS011;7350;51.208;4.238;2022-07-21T14:26:50;14.27;;;5.50;;
14526;SDS011;7350;51.208;4.238;2022-07-21T14:29:17;12.57;;;5.35;;
14526;SDS011;7350;51.208;4.238;2022-07-21T14:31:44;14.48;;;6.03;;
14526;SDS011;7350;51.208;4.238;2022-07-21T14:34:11;13.50;;;5.85;;
14526;SDS011;7350;51.208;4.238;2022-07-21T14:36:38;15.85;;;6.35;;
14526;SDS011;7350;51.208;4.238;2022-07-21T14:39:05;12.80;;;5.97;;
14526;SDS011;7350;51.208;4.238;2022-07-21T14:41:33;15.32;;;6.25;;
14526;SDS011;7350;51.208;4.238;2022-07-21T14:44:02;18.67;;;6.82;;
14526;SDS011;7350;51.208;4.238;2022-07-21T14:46:29;17.60;;;6.35;;
14526;SDS011;7350;51.208;4.238;2022-07-21T14:48:56;12.65;;;6.10;;
14526;SDS011;7350;51.208;4.238;2022-07-21T14:51:24;12.50;;;5.40;;
14526;SDS011;7350;51.208;4.238;2022-07-21T14:53:50;13.18;;;5.10;;
14526;SDS011;7350;51.208;4.238;2022-07-21T14:56:18;11.30;;;4.68;;
14526;SDS011;7350;51.208;4.238;2022-07-21T14:58:45;13.05;;;4.90;;
14526;SDS011;7350;51.208;4.238;2022-07-21T15:01:13;11.50;;;4.68;;
14526;SDS011;7350;51.208;4.238;2022-07-21T15:03:40;14.35;;;5.25;;
14526;SDS011;7350;51.208;4.238;2022-07-21T15:06:08;12.63;;;4.93;;
14526;SDS011;7350;51.208;4.238;2022-07-21T15:08:35;13.63;;;4.50;;
14526;SDS011;7350;51.208;4.238;2022-07-21T15:11:02;15.32;;;4.47;;